Time;durP1;ratioP1;P1;durP2;ratioP2;P2;SDS_P1;SDS_P2;PMS_P1;PMS_P2;Temp;Humidity;BMP_temperature;BMP_pressure;BME280_temperature;BME280_humidity;BME280_pressure;Samples;Min_cycle;Max_cycle;Signal;HPM_P1;HPM_P2
2021/04/04 00:02:24;;;;;;;19.60;3.95;;;7.80;70.20;;;;;;5051445;28;20017;-86
2021/04/04 00:04:50;;;;;;;18.80;4.80;;;7.70;69.70;;;;;;5051430;28;20517;-85
2021/04/04 00:07:15;;;;;;;23.83;4.03;;;7.70;67.30;;;;;;5050941;28;20044;-87
2021/04/04 00:09:41;;;;;;;15.65;2.90;;;7.70;65.90;;;;;;5051224;28;20025;-87
2021/04/04 00:12:08;;;;;;;18.58;3.55;;;7.80;66.80;;;;;;5050956;28;20017;-84
2021/04/04 00:14:35;;;;;;;20.05;3.78;;;7.70;69.20;;;;;;5054271;28;20040;-85
2021/04/04 00:17:01;;;;;;;13.23;3.88;;;7.80;74.20;;;;;;5054741;28;20025;-83
2021/04/04 00:19:26;;;;;;;8.85;2.17;;;7.70;70.40;;;;;;5055391;28;20036;-86
2021/04/04 00:21:52;;;;;;;21.75;3.63;;;7.80;74.40;;;;;;5056264;28;20025;-85
2021/04/04 00:24:18;;;;;;;23.85;3.80;;;7.80;67.60;;;;;;5058342;28;20036;-84
2021/04/04 00:26:43;;;;;;;16.98;3.53;;;7.80;65.60;;;;;;5059878;28;20037;-85
2021/04/04 00:29:10;;;;;;;30.85;5.40;;;7.80;65.20;;;;;;5057884;28;20031;-86
2021/04/04 00:31:37;;;;;;;22.63;4.18;;;7.80;64.70;;;;;;5056437;28;20075;-85
2021/04/04 00:34:04;;;;;;;14.93;3.85;;;7.80;64.70;;;;;;5055528;28;20387;-88
2021/04/04 00:36:29;;;;;;;15.02;2.67;;;7.80;64.70;;;;;;5055206;28;20021;-87
2021/04/04 00:38:55;;;;;;;23.88;5.10;;;7.80;65.80;;;;;;5056127;28;20083;-88
2021/04/04 00:41:21;;;;;;;14.85;3.40;;;7.80;64.80;;;;;;5055027;28;20016;-87
2021/04/04 00:43:47;;;;;;;21.08;5.40;;;7.80;65.00;;;;;;5055191;28;20025;-87
2021/04/04 00:46:12;;;;;;;17.52;3.95;;;7.80;64.90;;;;;;5054583;28;20029;-86
2021/04/04 00:48:38;;;;;;;16.75;4.22;;;7.80;64.90;;;;;;5055901;28;20021;-86
2021/04/04 00:51:04;;;;;;;16.10;3.75;;;7.80;64.80;;;;;;5055810;28;20021;-87
2021/04/04 00:53:30;;;;;;;14.77;3.58;;;7.80;64.80;;;;;;5054923;28;20449;-88
2021/04/04 00:55:56;;;;;;;18.88;3.85;;;7.80;64.80;;;;;;5055771;28;20024;-88
2021/04/04 00:58:22;;;;;;;13.80;3.67;;;7.80;64.70;;;;;;5054914;28;20437;-88
2021/04/04 01:00:48;;;;;;;19.85;3.88;;;7.80;64.80;;;;;;5056056;28;20021;-87
2021/04/04 01:03:13;;;;;;;19.58;4.65;;;7.80;65.00;;;;;;5054269;28;20032;-84
2021/04/04 01:05:44;;;;;;;20.92;3.47;;;7.80;64.90;;;;;;5054224;28;20350;-85
2021/04/04 01:08:10;;;;;;;18.48;3.80;;;7.80;65.10;;;;;;5053915;28;20080;-84
2021/04/04 01:10:39;;;;;;;17.90;3.63;;;7.80;66.00;;;;;;5054122;28;20017;-84
2021/04/04 01:13:25;;;;;;;26.52;4.32;;;7.80;65.80;;;;;;5053789;28;20017;-84
2021/04/04 01:16:14;;;;;;;17.02;3.63;;;7.80;65.00;;;;;;5055107;28;20340;-84
2021/04/04 01:19:05;;;;;;;16.70;3.75;;;7.80;65.30;;;;;;5053888;28;20029;-84
2021/04/04 01:21:49;;;;;;;18.80;3.40;;;7.80;65.40;;;;;;5052869;28;20029;-84
2021/04/04 01:24:47;;;;;;;22.27;3.38;;;7.80;65.40;;;;;;5053272;28;20028;-84
2021/04/04 01:27:27;;;;;;;22.63;3.50;;;7.70;65.50;;;;;;5053626;28;20017;-85
2021/04/04 01:29:54;;;;;;;;;;;7.60;65.60;;;;;;5055512;28;20017;-85
2021/04/04 01:32:20;;;;;;;21.20;5.60;;;7.70;65.70;;;;;;5055136;28;20349;-83
2021/04/04 01:34:45;;;;;;;20.90;3.47;;;7.60;65.80;;;;;;5053411;28;20070;-83
2021/04/04 01:37:13;;;;;;;12.20;3.10;;;7.60;68.50;;;;;;5053242;28;20342;-83
2021/04/04 01:39:46;;;;;;;20.70;3.63;;;7.60;68.40;;;;;;5053514;28;20017;-83
2021/04/04 01:42:13;;;;;;;14.50;3.50;;;7.50;67.10;;;;;;5053159;28;20019;-84
2021/04/04 01:44:43;;;;;;;14.23;2.80;;;7.50;72.10;;;;;;5053563;28;20021;-84
2021/04/04 01:47:09;;;;;;;14.45;3.38;;;7.50;67.90;;;;;;5053267;28;20373;-83
2021/04/04 01:49:38;;;;;;;22.63;4.15;;;7.60;66.50;;;;;;5054458;28;20013;-84
2021/04/04 01:52:04;;;;;;;21.73;4.20;;;7.60;66.10;;;;;;5053232;28;20024;-83
2021/04/04 01:54:31;;;;;;;13.93;2.72;;;7.60;65.90;;;;;;5054248;28;20024;-83
2021/04/04 01:56:57;;;;;;;16.40;3.03;;;7.70;69.50;;;;;;5053084;28;20024;-84
2021/04/04 01:59:24;;;;;;;14.85;4.03;;;7.70;67.20;;;;;;5053157;28;20099;-82
2021/04/04 02:01:50;;;;;;;16.92;3.67;;;7.70;66.20;;;;;;5053194;28;20029;-83
2021/04/04 02:04:17;;;;;;;15.80;3.38;;;7.70;66.60;;;;;;5053070;28;20065;-84
2021/04/04 02:06:43;;;;;;;20.52;3.42;;;7.70;65.90;;;;;;5052866;28;20450;-83
2021/04/04 02:09:14;;;;;;;17.55;4.13;;;7.70;65.80;;;;;;5052597;28;20112;-81
2021/04/04 02:11:41;;;;;;;;;;;7.70;65.90;;;;;;5053620;28;20013;-86
2021/04/04 02:14:09;;;;;;;20.20;3.05;;;7.80;65.60;;;;;;5053173;28;20353;-84
2021/04/04 02:16:42;;;;;;;16.15;2.58;;;7.80;65.80;;;;;;5052868;28;20017;-86
2021/04/04 02:19:10;;;;;;;13.73;3.95;;;7.70;65.70;;;;;;5053055;28;20029;-83
2021/04/04 02:21:37;;;;;;;15.77;3.60;;;7.70;66.00;;;;;;5054400;28;20112;-84
2021/04/04 02:24:05;;;;;;;10.65;2.55;;;7.70;66.00;;;;;;5056542;28;20082;-86
2021/04/04 02:26:32;;;;;;;16.33;2.70;;;7.80;70.00;;;;;;5052689;28;20083;-85
2021/04/04 02:28:58;;;;;;;19.13;4.90;;;7.80;68.70;;;;;;5052842;28;20101;-84
2021/04/04 02:31:25;;;;;;;17.92;3.63;;;7.80;66.80;;;;;;5052457;28;20119;-83
2021/04/04 02:33:57;;;;;;;19.88;4.03;;;7.70;66.30;;;;;;5052509;28;20021;-84
2021/04/04 02:36:26;;;;;;;15.98;3.55;;;7.70;66.30;;;;;;5051382;28;20088;-83
2021/04/04 02:38:58;;;;;;;21.70;3.55;;;7.80;66.40;;;;;;5052248;28;20027;-83
2021/04/04 02:41:24;;;;;;;23.95;5.55;;;7.70;66.40;;;;;;5052295;28;20024;-84
2021/04/04 02:43:52;;;;;;;16.50;2.97;;;7.70;66.50;;;;;;5052159;28;20025;-84
2021/04/04 02:46:21;;;;;;;21.13;4.15;;;7.80;66.40;;;;;;5051980;28;20413;-84
2021/04/04 02:48:57;;;;;;;19.83;4.45;;;7.70;66.40;;;;;;5052382;28;20441;-83
2021/04/04 02:51:39;;;;;;;17.13;3.00;;;7.70;66.40;;;;;;5052015;28;20107;-83
2021/04/04 02:54:07;;;;;;;17.20;2.83;;;7.70;66.30;;;;;;5053141;28;20097;-83
2021/04/04 02:56:38;;;;;;;17.90;3.67;;;7.70;67.10;;;;;;5051764;28;20017;-83
2021/04/04 02:59:08;;;;;;;17.70;3.45;;;7.70;66.90;;;;;;5051977;28;20063;-82
2021/04/04 03:01:34;;;;;;;15.95;3.90;;;7.70;66.70;;;;;;5053500;28;20343;-83
2021/04/04 03:04:04;;;;;;;20.10;3.97;;;7.70;66.60;;;;;;5051467;28;20021;-82
2021/04/04 03:06:30;;;;;;;16.50;3.80;;;7.70;66.80;;;;;;5053053;28;20045;-82
2021/04/04 03:08:57;;;;;;;19.90;5.18;;;7.70;66.80;;;;;;5051734;28;20075;-84
2021/04/04 03:11:23;;;;;;;19.33;4.20;;;7.70;66.90;;;;;;5051691;28;20338;-83
2021/04/04 03:13:51;;;;;;;17.08;4.85;;;7.70;66.80;;;;;;5051836;28;20215;-84
2021/04/04 03:16:19;;;;;;;17.15;3.38;;;7.70;66.90;;;;;;5052489;28;20021;-85
2021/04/04 03:18:46;;;;;;;16.67;3.47;;;7.70;66.80;;;;;;5051985;28;20052;-84
2021/04/04 03:21:13;;;;;;;25.17;4.45;;;7.70;67.10;;;;;;5051642;28;20454;-84
2021/04/04 03:23:40;;;;;;;15.40;2.60;;;7.70;67.00;;;;;;5051903;28;20017;-85
2021/04/04 03:26:06;;;;;;;16.40;2.78;;;7.70;66.90;;;;;;5051414;28;20021;-83
2021/04/04 03:28:32;;;;;;;13.27;2.90;;;7.70;67.10;;;;;;5051867;28;20017;-85
2021/04/04 03:31:01;;;;;;;17.88;3.10;;;7.70;67.20;;;;;;5052796;28;20021;-84
2021/04/04 03:33:28;;;;;;;38.70;13.15;;;7.70;67.10;;;;;;5051570;28;20016;-85
2021/04/04 03:35:56;;;;;;;17.25;4.03;;;7.70;67.20;;;;;;5051898;28;20044;-84
2021/04/04 03:38:24;;;;;;;16.25;4.05;;;7.70;67.40;;;;;;5051373;28;20103;-83
2021/04/04 03:40:51;;;;;;;17.50;4.47;;;7.60;67.30;;;;;;5051512;28;20040;-83
2021/04/04 03:43:24;;;;;;;14.68;2.72;;;7.60;67.30;;;;;;5050984;28;20395;-83
2021/04/04 03:45:53;;;;;;;6.80;1.73;;;7.60;67.20;;;;;;5052515;28;20392;-85
2021/04/04 03:48:20;;;;;;;11.18;2.00;;;7.60;73.90;;;;;;5051043;28;20017;-84
2021/04/04 03:50:48;;;;;;;10.63;2.63;;;7.70;73.80;;;;;;5051192;28;20013;-84
2021/04/04 03:53:19;;;;;;;11.50;2.72;;;7.60;70.30;;;;;;5051130;28;20388;-84
2021/04/04 03:55:47;;;;;;;12.82;2.40;;;7.60;68.40;;;;;;5053155;28;20111;-85
2021/04/04 03:58:13;;;;;;;14.00;2.90;;;7.60;67.90;;;;;;5051419;28;20445;-84
2021/04/04 04:00:40;;;;;;;16.73;3.08;;;7.60;67.70;;;;;;5051889;28;20029;-84
2021/04/04 04:03:07;;;;;;;10.32;1.63;;;7.50;67.70;;;;;;5051578;28;20025;-85
2021/04/04 04:05:34;;;;;;;10.48;2.22;;;7.60;68.00;;;;;;5051696;28;20060;-84
2021/04/04 04:08:00;;;;;;;10.00;2.40;;;7.50;67.90;;;;;;5053176;28;20052;-85
2021/04/04 04:10:27;;;;;;;7.53;1.40;;;7.60;67.90;;;;;;5062162;28;20062;-82
2021/04/04 04:12:53;;;;;;;12.20;2.55;;;7.50;69.40;;;;;;5073082;28;20013;-82
2021/04/04 04:15:19;;;;;;;10.63;2.78;;;7.60;68.70;;;;;;5072024;28;20021;-84
2021/04/04 04:17:46;;;;;;;13.55;4.03;;;7.50;68.40;;;;;;5072819;28;20025;-83
2021/04/04 04:20:13;;;;;;;15.60;3.10;;;7.50;68.20;;;;;;5072218;28;20021;-86
2021/04/04 04:22:40;;;;;;;8.68;2.10;;;7.50;69.00;;;;;;5061074;28;20028;-85
2021/04/04 04:25:07;;;;;;;10.75;2.55;;;7.40;68.70;;;;;;5052418;28;20453;-85
2021/04/04 04:27:33;;;;;;;9.80;2.10;;;7.40;68.10;;;;;;5052129;28;20017;-85
2021/04/04 04:30:01;;;;;;;8.23;1.70;;;7.40;69.20;;;;;;5053019;28;20031;-86
2021/04/04 04:32:30;;;;;;;12.10;3.00;;;7.40;68.60;;;;;;5053487;28;20465;-84
2021/04/04 04:34:56;;;;;;;13.32;2.35;;;7.50;68.40;;;;;;5051139;28;20017;-85
2021/04/04 04:37:23;;;;;;;17.08;3.20;;;7.50;68.20;;;;;;5050746;28;20021;-85
2021/04/04 04:39:49;;;;;;;13.35;2.65;;;7.50;68.20;;;;;;5051283;28;20048;-85
2021/04/04 04:42:17;;;;;;;15.10;2.30;;;7.50;67.90;;;;;;5051009;28;20028;-86
2021/04/04 04:44:45;;;;;;;11.45;2.30;;;7.50;68.10;;;;;;5051349;28;20032;-85
2021/04/04 04:47:12;;;;;;;13.18;3.33;;;7.50;68.10;;;;;;5052271;28;20399;-86
2021/04/04 04:49:38;;;;;;;20.92;2.92;;;7.50;68.20;;;;;;5051098;28;20025;-85
2021/04/04 04:52:04;;;;;;;13.23;2.10;;;7.50;68.10;;;;;;5051229;28;20361;-87
2021/04/04 04:54:30;;;;;;;14.98;3.67;;;7.50;68.10;;;;;;5051770;28;20028;-89
2021/04/04 04:56:56;;;;;;;14.55;3.00;;;7.60;68.80;;;;;;5051618;28;20032;-86
2021/04/04 04:59:24;;;;;;;11.32;2.50;;;7.60;68.30;;;;;;5052190;28;20049;-87
2021/04/04 05:01:52;;;;;;;10.52;1.77;;;7.60;68.20;;;;;;5055165;28;20017;-87
2021/04/04 05:04:17;;;;;;;13.63;2.70;;;7.60;68.40;;;;;;5054711;28;20043;-86
2021/04/04 05:06:46;;;;;;;15.18;3.00;;;7.60;68.30;;;;;;5054847;28;20534;-86
2021/04/04 05:09:13;;;;;;;14.98;2.30;;;7.50;68.10;;;;;;5054461;28;20029;-86
2021/04/04 05:11:44;;;;;;;18.70;3.00;;;7.60;68.10;;;;;;5054836;28;20465;-86
2021/04/04 05:14:11;;;;;;;14.70;2.95;;;7.60;68.00;;;;;;5054504;28;20112;-86
2021/04/04 05:16:37;;;;;;;11.85;2.45;;;7.60;68.40;;;;;;5054183;28;20512;-87
2021/04/04 05:19:06;;;;;;;16.58;2.90;;;7.50;68.40;;;;;;5055195;28;20055;-89
2021/04/04 05:21:31;;;;;;;13.60;2.80;;;7.50;68.80;;;;;;5056193;28;20112;-89
2021/04/04 05:24:05;;;;;;;14.02;2.70;;;7.50;68.40;;;;;;5055310;28;20040;-86
2021/04/04 05:26:43;;;;;;;12.82;2.55;;;7.50;68.20;;;;;;5054528;28;20074;-86
2021/04/04 05:29:11;;;;;;;13.75;2.80;;;7.50;72.20;;;;;;5055666;28;20206;-86
2021/04/04 05:31:50;;;;;;;18.35;3.20;;;7.50;69.50;;;;;;5054378;28;20104;-86
2021/04/04 05:34:39;;;;;;;22.15;4.80;;;7.50;69.00;;;;;;5056115;28;20330;-90
2021/04/04 05:37:06;;;;;;;17.15;5.10;;;7.50;68.80;;;;;;5055587;28;20021;-86
2021/04/04 05:39:33;;;;;;;16.85;3.97;;;7.50;69.00;;;;;;5053612;28;20048;-85
2021/04/04 05:42:01;;;;;;;16.73;3.45;;;7.50;69.20;;;;;;5053850;28;20049;-84
2021/04/04 05:44:34;;;;;;;17.35;2.45;;;7.60;69.10;;;;;;5053433;28;20017;-83
2021/04/04 05:47:05;;;;;;;13.10;2.80;;;7.50;68.90;;;;;;5053502;28;20039;-84
2021/04/04 05:50:07;;;;;;;13.05;2.38;;;7.60;69.10;;;;;;5053195;28;20021;-85
2021/04/04 05:52:45;;;;;;;12.18;2.83;;;7.50;69.00;;;;;;5053371;28;20060;-84
2021/04/04 05:55:24;;;;;;;9.25;2.30;;;7.60;69.10;;;;;;5054014;28;20070;-84
2021/04/04 05:57:56;;;;;;;20.30;3.03;;;7.60;69.40;;;;;;5053517;28;20029;-88
2021/04/04 06:00:27;;;;;;;10.32;2.38;;;7.50;69.20;;;;;;5054834;28;20532;-87
2021/04/04 06:03:15;;;;;;;16.15;3.42;;;7.60;69.40;;;;;;5053824;28;20107;-86
2021/04/04 06:06:05;;;;;;;14.48;2.75;;;7.50;69.30;;;;;;5053694;28;20515;-86
2021/04/04 06:09:03;;;;;;;16.13;3.33;;;7.60;69.50;;;;;;5057342;28;20029;-89
2021/04/04 06:11:47;;;;;;;14.25;3.72;;;7.60;69.40;;;;;;5053048;28;20041;-89
2021/04/04 06:14:27;;;;;;;11.30;2.63;;;7.60;69.40;;;;;;5055477;28;20591;-87
2021/04/04 06:17:15;;;;;;;10.02;2.05;;;7.60;69.20;;;;;;5061445;28;20063;-87
2021/04/04 06:20:03;;;;;;;23.50;4.55;;;7.70;69.40;;;;;;5067387;28;20025;-87
2021/04/04 06:22:52;;;;;;;24.40;4.35;;;7.70;69.30;;;;;;5054267;28;20071;-87
2021/04/04 06:25:43;;;;;;;10.60;3.20;;;7.60;69.30;;;;;;5053022;28;20453;-87
2021/04/04 06:28:30;;;;;;;24.15;3.25;;;7.70;69.50;;;;;;5052898;28;20017;-84
2021/04/04 06:31:08;;;;;;;13.07;2.38;;;7.70;69.40;;;;;;5054100;28;20100;-86
2021/04/04 06:33:40;;;;;;;20.05;4.32;;;7.70;69.00;;;;;;5052769;28;20032;-84
2021/04/04 06:36:16;;;;;;;15.82;3.33;;;7.70;69.30;;;;;;5054012;28;20115;-84
2021/04/04 06:39:08;;;;;;;12.52;3.17;;;7.70;69.40;;;;;;5052668;28;20025;-85
2021/04/04 06:41:48;;;;;;;21.25;4.25;;;7.70;69.40;;;;;;5052496;28;20044;-84
2021/04/04 06:44:44;;;;;;;21.30;3.00;;;7.70;69.40;;;;;;5054765;28;20012;-84
2021/04/04 06:47:28;;;;;;;11.65;2.60;;;7.70;69.30;;;;;;5061892;28;20036;-83
2021/04/04 06:50:14;;;;;;;10.13;2.13;;;7.80;69.40;;;;;;5062661;28;20025;-83
2021/04/04 06:52:43;;;;;;;14.90;3.15;;;7.80;69.20;;;;;;5061772;28;20103;-83
2021/04/04 06:55:38;;;;;;;16.73;2.35;;;7.80;69.30;;;;;;5061609;28;20036;-84
2021/04/04 06:58:09;;;;;;;15.82;3.38;;;7.80;68.90;;;;;;5059504;28;20051;-84
2021/04/04 07:00:59;;;;;;;12.80;2.92;;;7.90;69.20;;;;;;5062013;28;20017;-82
2021/04/04 07:03:28;;;;;;;21.80;4.35;;;7.90;69.10;;;;;;5072848;28;20016;-82
2021/04/04 07:06:20;;;;;;;14.27;2.30;;;7.90;68.90;;;;;;5071461;28;20016;-82
2021/04/04 07:08:56;;;;;;;15.13;2.40;;;7.90;68.90;;;;;;5072183;28;20107;-87
2021/04/04 07:11:32;;;;;;;12.02;3.15;;;7.90;69.10;;;;;;5071595;28;20228;-85
2021/04/04 07:14:17;;;;;;;14.55;3.20;;;7.90;69.40;;;;;;5072255;28;20028;-86
2021/04/04 07:17:14;;;;;;;12.05;2.80;;;8.00;68.90;;;;;;5062234;28;20102;-86
2021/04/04 07:20:03;;;;;;;15.68;2.50;;;8.00;69.00;;;;;;5051810;28;20115;-86
2021/04/04 07:22:47;;;;;;;15.63;2.90;;;8.00;68.90;;;;;;5053121;28;20450;-85
2021/04/04 07:25:22;;;;;;;20.52;3.15;;;8.10;68.80;;;;;;5051849;28;20020;-85
2021/04/04 07:28:12;;;;;;;16.85;3.47;;;8.10;69.60;;;;;;5051714;28;20020;-85
2021/04/04 07:30:45;;;;;;;13.27;3.08;;;8.10;69.60;;;;;;5051434;28;20135;-84
2021/04/04 07:33:30;;;;;;;23.92;3.25;;;8.10;69.40;;;;;;5051417;28;20017;-84
2021/04/04 07:36:04;;;;;;;22.50;3.70;;;8.20;69.50;;;;;;5051462;28;20492;-87
2021/04/04 07:38:44;;;;;;;11.65;2.35;;;8.20;69.40;;;;;;5054034;28;20141;-88
2021/04/04 07:41:27;;;;;;;13.10;2.50;;;8.20;70.10;;;;;;5053460;28;20025;-88
2021/04/04 07:44:41;;;;;;;16.55;2.92;;;8.20;71.50;;;;;;5052420;28;20016;-88
2021/04/04 07:47:16;;;;;;;10.27;2.65;;;8.20;71.10;;;;;;5050141;28;20036;-88
2021/04/04 07:49:44;;;;;;;15.05;3.42;;;8.20;70.70;;;;;;5051569;28;20519;-87
2021/04/04 07:52:25;;;;;;;13.85;2.83;;;8.20;71.20;;;;;;5051638;28;20029;-88
2021/04/04 07:55:11;;;;;;;10.45;3.08;;;8.20;70.70;;;;;;5052179;28;20017;-89
2021/04/04 07:58:03;;;;;;;14.60;2.67;;;8.20;70.90;;;;;;5051786;28;20040;-87
2021/04/04 08:00:32;;;;;;;10.40;3.00;;;8.10;71.40;;;;;;5051578;28;20483;-87
2021/04/04 08:03:18;;;;;;;18.15;4.82;;;8.10;71.70;;;;;;5051568;28;20020;-87
2021/04/04 08:05:47;;;;;;;15.32;4.82;;;8.20;73.00;;;;;;5052020;28;20057;-88
2021/04/04 08:08:30;;;;;;;16.00;2.90;;;8.20;73.40;;;;;;5052265;28;20036;-89
2021/04/04 08:11:06;;;;;;;13.30;3.92;;;8.10;73.30;;;;;;5052297;28;20029;-88
2021/04/04 08:13:47;;;;;;;11.93;2.45;;;8.10;73.90;;;;;;5056462;28;20112;-88
2021/04/04 08:16:24;;;;;;;7.95;2.53;;;8.10;74.20;;;;;;5070444;28;20035;-87
2021/04/04 08:18:50;;;;;;;7.75;2.80;;;8.10;73.20;;;;;;5077888;28;20464;-87
2021/04/04 08:21:27;;;;;;;12.88;2.97;;;8.10;73.20;;;;;;5071853;28;20008;-87
2021/04/04 08:24:07;;;;;;;8.30;2.60;;;8.10;73.80;;;;;;5071160;28;20178;-85
2021/04/04 08:26:43;;;;;;;9.20;2.72;;;8.20;73.10;;;;;;5070951;28;20025;-86
2021/04/04 08:29:14;;;;;;;8.15;2.47;;;8.20;72.10;;;;;;5071003;28;20020;-86
2021/04/04 08:31:46;;;;;;;12.05;2.95;;;8.20;72.50;;;;;;5070853;28;20017;-86
2021/04/04 08:34:17;;;;;;;9.25;2.50;;;8.30;72.00;;;;;;5071838;28;20017;-86
2021/04/04 08:36:51;;;;;;;9.57;3.17;;;8.30;71.90;;;;;;5074813;28;20028;-85
2021/04/04 08:39:20;;;;;;;9.20;3.20;;;8.30;71.90;;;;;;5074905;28;20028;-86
2021/04/04 08:41:48;;;;;;;9.95;3.10;;;8.20;71.80;;;;;;5074961;28;20047;-86
2021/04/04 08:44:23;;;;;;;13.00;3.38;;;8.20;71.60;;;;;;5074806;28;20016;-85
2021/04/04 08:47:19;;;;;;;9.20;3.13;;;8.20;71.70;;;;;;5074987;28;20016;-85
2021/04/04 08:49:47;;;;;;;9.25;3.58;;;8.20;72.40;;;;;;5075243;28;20062;-85
2021/04/04 08:52:18;;;;;;;11.80;4.72;;;8.10;72.90;;;;;;5076230;28;20009;-85
2021/04/04 08:54:50;;;;;;;10.77;4.28;;;8.00;73.30;;;;;;5075612;28;20186;-85
2021/04/04 08:57:19;;;;;;;10.50;3.55;;;7.90;73.60;;;;;;5076023;28;20020;-85
2021/04/04 08:59:51;;;;;;;11.05;3.47;;;8.00;73.70;;;;;;5075041;28;20025;-86
2021/04/04 09:02:18;;;;;;;9.10;3.30;;;7.90;73.90;;;;;;5079452;28;20032;-85
2021/04/04 09:04:43;;;;;;;7.53;3.78;;;8.00;73.20;;;;;;5078827;28;20031;-84
2021/04/04 09:07:10;;;;;;;9.45;4.53;;;8.00;72.90;;;;;;5074637;28;20041;-85
2021/04/04 09:09:45;;;;;;;9.23;3.50;;;8.00;73.10;;;;;;5074843;28;20013;-84
2021/04/04 09:12:12;;;;;;;7.68;3.38;;;8.00;72.50;;;;;;5075309;28;20021;-85
2021/04/04 09:14:41;;;;;;;9.10;3.97;;;8.10;72.50;;;;;;5074697;28;20812;-85
2021/04/04 09:17:16;;;;;;;11.07;3.60;;;8.10;72.00;;;;;;5074786;28;20032;-86
2021/04/04 09:19:44;;;;;;;7.80;3.90;;;8.20;71.40;;;;;;5075554;28;20016;-84
2021/04/04 09:22:14;;;;;;;7.88;4.32;;;8.20;70.00;;;;;;5074435;28;20056;-85
2021/04/04 09:25:11;;;;;;;8.77;3.47;;;8.20;69.40;;;;;;5074285;28;20032;-85
2021/04/04 09:27:42;;;;;;;14.63;5.05;;;8.30;69.90;;;;;;5073151;28;20159;-86
2021/04/04 09:30:36;;;;;;;13.50;3.38;;;8.40;70.60;;;;;;5075804;28;20070;-85
2021/04/04 09:33:04;;;;;;;8.32;2.65;;;8.40;71.60;;;;;;5075685;28;20024;-86
2021/04/04 09:35:31;;;;;;;9.77;3.78;;;8.30;69.80;;;;;;5074287;28;20453;-88
2021/04/04 09:38:09;;;;;;;6.72;3.55;;;8.20;70.10;;;;;;5074572;28;20071;-86
2021/04/04 09:40:35;;;;;;;7.78;3.15;;;8.20;70.00;;;;;;5074614;28;20013;-86
2021/04/04 09:43:18;;;;;;;8.10;3.58;;;8.10;70.40;;;;;;5074944;28;20038;-87
2021/04/04 09:45:43;;;;;;;8.88;3.70;;;8.20;70.80;;;;;;5074079;28;20032;-85
2021/04/04 09:48:21;;;;;;;7.50;3.55;;;8.20;70.70;;;;;;5075483;28;20453;-85
2021/04/04 09:50:48;;;;;;;6.95;3.17;;;8.30;69.70;;;;;;5073905;28;20017;-85
2021/04/04 09:53:40;;;;;;;9.43;3.65;;;8.20;69.60;;;;;;5073757;28;20017;-84
2021/04/04 09:56:12;;;;;;;6.47;2.88;;;8.30;69.60;;;;;;5073693;28;20027;-85
2021/04/04 09:58:43;;;;;;;6.45;3.13;;;8.40;70.40;;;;;;5073406;28;20069;-86
2021/04/04 10:01:15;;;;;;;;;;;8.30;68.90;;;;;;5074495;28;20019;-85
2021/04/04 10:03:41;;;;;;;4.63;2.55;;;8.40;69.00;;;;;;5073627;28;19904;-86
2021/04/04 10:06:12;;;;;;;6.85;2.08;;;8.50;68.50;;;;;;5073358;28;20111;-84
2021/04/04 10:08:38;;;;;;;7.32;2.55;;;8.50;70.00;;;;;;5074627;28;20008;-86
2021/04/04 10:11:14;;;;;;;10.25;3.08;;;8.50;69.80;;;;;;5079931;28;20525;-85
2021/04/04 10:13:39;;;;;;;6.15;2.28;;;8.60;67.70;;;;;;5079589;28;20106;-86
2021/04/04 10:16:22;;;;;;;7.75;3.08;;;8.60;68.20;;;;;;5069611;28;20048;-85
2021/04/04 10:19:12;;;;;;;8.07;2.90;;;8.60;68.50;;;;;;5053640;28;20021;-87
2021/04/04 10:21:40;;;;;;;4.13;1.67;;;8.70;67.10;;;;;;5070268;28;20017;-84
2021/04/04 10:24:38;;;;;;;5.90;2.45;;;8.80;70.80;;;;;;5072353;28;20020;-85
2021/04/04 10:27:26;;;;;;;5.13;2.30;;;8.90;69.40;;;;;;5092301;28;20024;-81
2021/04/04 10:30:18;;;;;;;8.35;1.92;;;9.00;67.40;;;;;;5092312;28;20039;-82
2021/04/04 10:32:44;;;;;;;3.08;1.58;;;9.10;67.60;;;;;;5092087;28;20363;-83
2021/04/04 10:35:12;;;;;;;6.40;2.22;;;9.20;67.20;;;;;;5092740;28;20035;-82
2021/04/04 10:37:39;;;;;;;5.97;2.38;;;9.40;65.20;;;;;;5092519;28;20343;-81
2021/04/04 10:40:06;;;;;;;3.88;1.90;;;9.40;63.70;;;;;;5092366;28;20069;-79
2021/04/04 10:42:33;;;;;;;6.82;1.95;;;9.40;65.00;;;;;;5091736;28;20081;-80
2021/04/04 10:45:07;;;;;;;6.97;2.30;;;9.50;63.30;;;;;;5093650;28;20055;-81
2021/04/04 10:47:32;;;;;;;3.38;1.70;;;9.40;64.40;;;;;;5092020;28;20337;-81
2021/04/04 10:50:03;;;;;;;7.07;2.25;;;9.50;66.40;;;;;;5092240;28;20019;-80
2021/04/04 10:52:29;;;;;;;;;;;9.50;62.80;;;;;;5092133;28;20016;-81
2021/04/04 10:54:55;;;;;;;4.18;1.55;;;9.60;63.30;;;;;;5092385;28;19907;-82
2021/04/04 10:57:21;;;;;;;8.32;1.83;;;9.60;62.60;;;;;;5091383;28;20391;-81
2021/04/04 10:59:48;;;;;;;6.25;2.00;;;9.70;62.50;;;;;;5092046;28;20032;-80
2021/04/04 11:02:13;;;;;;;7.85;2.22;;;9.80;62.90;;;;;;5091974;28;20016;-81
2021/04/04 11:04:40;;;;;;;8.48;3.53;;;9.80;63.00;;;;;;5091701;28;20032;-80
2021/04/04 11:07:06;;;;;;;7.70;2.72;;;9.80;61.20;;;;;;5091667;28;20109;-80
2021/04/04 11:09:32;;;;;;;10.23;2.45;;;9.80;60.70;;;;;;5091465;28;20023;-80
2021/04/04 11:12:01;;;;;;;5.07;1.50;;;9.70;61.60;;;;;;5091796;28;20023;-81
2021/04/04 11:14:31;;;;;;;5.50;2.00;;;9.80;63.90;;;;;;5077552;28;20102;-81
2021/04/04 11:17:01;;;;;;;8.23;3.05;;;9.90;63.10;;;;;;5059316;28;20025;-79
2021/04/04 11:19:27;;;;;;;8.65;2.95;;;9.90;62.10;;;;;;5059781;28;20019;-79
2021/04/04 11:21:54;;;;;;;9.20;3.00;;;10.00;61.10;;;;;;5054052;28;20005;-80
2021/04/04 11:24:23;;;;;;;13.27;2.95;;;10.00;61.20;;;;;;5059287;28;20056;-79
2021/04/04 11:26:59;;;;;;;10.40;3.03;;;9.90;64.00;;;;;;5056617;28;20032;-80
2021/04/04 11:29:27;;;;;;;10.57;3.80;;;10.00;62.20;;;;;;5073739;28;20426;-81
2021/04/04 11:32:13;;;;;;;12.43;3.55;;;10.00;61.60;;;;;;5056110;28;20025;-81
2021/04/04 11:34:40;;;;;;;9.90;3.08;;;10.00;61.10;;;;;;5074307;28;20040;-79
2021/04/04 11:37:28;;;;;;;7.55;2.53;;;10.00;63.60;;;;;;5069861;28;20020;-78
2021/04/04 11:40:23;;;;;;;10.57;3.20;;;10.10;64.80;;;;;;5053620;28;20121;-77
2021/04/04 11:42:51;;;;;;;10.02;3.42;;;10.20;61.90;;;;;;5067549;28;20016;-80
2021/04/04 11:45:34;;;;;;;11.95;3.75;;;10.30;59.50;;;;;;5067840;28;20555;-79
2021/04/04 11:48:30;;;;;;;11.65;4.18;;;10.30;59.40;;;;;;5052527;28;20025;-79
2021/04/04 11:51:11;;;;;;;10.88;3.97;;;10.30;57.80;;;;;;5066742;28;20029;-79
2021/04/04 11:53:41;;;;;;;10.52;3.45;;;10.20;58.10;;;;;;5060171;28;20381;-81
2021/04/04 11:56:07;;;;;;;10.43;3.38;;;10.20;58.30;;;;;;5071194;28;20028;-81
2021/04/04 11:58:34;;;;;;;9.93;3.75;;;10.10;58.70;;;;;;5072073;28;20016;-80
2021/04/04 12:01:00;;;;;;;10.55;3.63;;;10.10;59.30;;;;;;5072570;28;20558;-80
2021/04/04 12:03:27;;;;;;;13.77;3.97;;;10.10;58.60;;;;;;5071630;28;20017;-80
2021/04/04 12:05:53;;;;;;;8.05;3.00;;;10.10;59.10;;;;;;5071254;28;20059;-79
2021/04/04 12:08:30;;;;;;;16.15;4.40;;;10.20;62.90;;;;;;5071970;28;20032;-81
2021/04/04 12:10:56;;;;;;;18.88;5.88;;;10.20;60.80;;;;;;5075203;28;20157;-82
2021/04/04 12:13:22;;;;;;;14.85;4.60;;;10.10;57.80;;;;;;5074895;28;20040;-79
2021/04/04 12:15:48;;;;;;;10.45;4.57;;;10.10;57.80;;;;;;5072511;28;20024;-79
2021/04/04 12:18:14;;;;;;;14.57;4.95;;;10.10;60.40;;;;;;5054925;28;20023;-81
2021/04/04 12:20:40;;;;;;;12.15;5.53;;;10.20;60.90;;;;;;5054774;28;20017;-80
2021/04/04 12:23:11;;;;;;;11.20;5.15;;;10.20;58.40;;;;;;5054854;28;20028;-79
2021/04/04 12:25:37;;;;;;;11.50;4.13;;;10.30;58.50;;;;;;5054661;28;20031;-79
2021/04/04 12:28:03;;;;;;;13.40;5.93;;;10.40;60.80;;;;;;5054777;28;20013;-79
2021/04/04 12:30:40;;;;;;;16.55;5.28;;;10.50;57.20;;;;;;5054796;28;20108;-79
2021/04/04 12:33:11;;;;;;;20.00;6.53;;;10.50;60.30;;;;;;5054782;28;20017;-80
2021/04/04 12:35:47;;;;;;;14.95;6.35;;;10.60;58.20;;;;;;5054424;28;20116;-81
2021/04/04 12:38:25;;;;;;;14.27;5.53;;;10.60;58.20;;;;;;5054674;28;20059;-80
2021/04/04 12:40:51;;;;;;;14.23;4.80;;;10.70;57.30;;;;;;5054333;28;20379;-80
2021/04/04 12:43:17;;;;;;;11.73;5.25;;;10.70;64.40;;;;;;5054505;28;20365;-80
2021/04/04 12:45:43;;;;;;;17.65;5.85;;;10.80;60.90;;;;;;5053801;28;20017;-80
2021/04/04 12:48:14;;;;;;;15.18;4.82;;;10.80;57.40;;;;;;5053658;28;20036;-81
2021/04/04 12:50:40;;;;;;;16.25;5.90;;;10.80;61.60;;;;;;5053746;28;20062;-80
2021/04/04 12:53:05;;;;;;;16.75;6.38;;;10.90;58.00;;;;;;5054780;28;20053;-82
2021/04/04 12:55:32;;;;;;;15.55;6.20;;;11.00;56.90;;;;;;5055442;28;20025;-82
2021/04/04 12:58:04;;;;;;;15.10;5.32;;;11.00;56.60;;;;;;5055921;28;20044;-83
2021/04/04 13:00:37;;;;;;;12.60;5.03;;;11.00;56.10;;;;;;5055873;28;20373;-83
2021/04/04 13:03:10;;;;;;;14.75;5.10;;;11.10;56.20;;;;;;5054808;28;20442;-82
2021/04/04 13:05:40;;;;;;;13.05;4.82;;;11.10;56.90;;;;;;5054024;28;20023;-81
2021/04/04 13:08:36;;;;;;;15.07;4.88;;;10.90;56.60;;;;;;5054214;28;20049;-82
2021/04/04 13:11:06;;;;;;;19.67;6.22;;;11.00;59.10;;;;;;5052582;28;20033;-81
2021/04/04 13:13:40;;;;;;;11.40;4.82;;;10.90;57.20;;;;;;5053948;28;20025;-83
2021/04/04 13:16:14;;;;;;;8.38;4.07;;;10.90;61.90;;;;;;5058476;28;20021;-83